Archival Weather

NSFA McMurdo Sound

NSFA McMurdo Sound, Antarctica (NZCM)

Report from: Friday, September 23, 2022 9:15 AM UTC
Current time: Sunday, December 4, 2022 11:50 AM UTC

Current weather
Weather history
Weather forecast

Present weatherHaze
Temperature-22.1°C (-7.8°F)
Wind chill-35.9°C (-32.6°F)
Dew point-26.1°C (-15.0°F)
Winds 18 kts (9.3 m/s, 20.7 mph) Vrb
Wind gusts 26 kts (13.4 m/s, 29.9 mph)
Winds variableWinds variable from Northeast (50°) to East-Southeast (110°)
Peak wind 26 kts (13.4 m/s, 29.9 mph) East (80°) at 04:11
Visibility0.9 mi. (1.5 km)
Clouds Ceiling: Vertical visibility 900 ft. (274 m)
Altimeter28.66 in.Hg (971 mB)
Precip. events Snow began 8:57 AM
Snow ended 9:15 AM
Relative humidity70 %
Density altitude-3,246 ft. (-989 m)
Sea-level pressure107.1 kPa (1071 mB, 31.63 in.Hg)
Remarks Fully automated report
System requires maintenance
Special weather observation
Automated weather observing station with precipitation discriminator
Flight conditions Low Instrument Meteorological Conditions
Raw dataSPECI NZCM 230915Z AUTO 07018G26KT 050V110 1500 HZ VV009 M22/M26 A2866 RMK AO2 PK WND 08026/0911 WSHFT 0903 SNB0857E0915 SLP711 T12211261 $
An error has occurred. This application may no longer respond until reloaded. Reload 🗙